Terminal Aerodrome Forecast
Issued by NWS

Home | Current Version | Previous Version | Text Only | Print | Product List | Glossary On
Versions: 1 2 3 4 5 6 7 8 9 10 11 12
405
FTUS45 KVEF 212320
TAFBIH
TAF
KBIH 212320Z 2200/2224 VRB04KT P6SM BKN200
     FM220400 33006KT P6SM SCT250
     FM221600 VRB04KT P6SM FEW250
     FM222100 17005KT P6SM SCT250=

USA.gov is the U.S. government's official web portal to all federal, state and local government web resources and services.